Time;durP1;ratioP1;P1;durP2;ratioP2;P2;SDS_P1;SDS_P2;PMS_P1;PMS_P2;Temp;Humidity;BMP_temperature;BMP_pressure;BME280_temperature;BME280_humidity;BME280_pressure;Samples;Min_cycle;Max_cycle;Signal;HPM_P1;HPM_P2
2021/06/10 00:00:48;;;;;;;11.45;10.15;;;23.80;47.30;;;;;;5077894;28;20093;-64
2021/06/10 00:03:14;;;;;;;15.88;11.80;;;23.80;47.80;;;;;;5065158;28;20047;-63
2021/06/10 00:05:41;;;;;;;17.98;14.27;;;23.70;48.20;;;;;;5072261;28;20045;-63
2021/06/10 00:08:08;;;;;;;23.83;17.45;;;23.60;48.20;;;;;;5076788;28;20032;-63
2021/06/10 00:10:35;;;;;;;14.73;12.35;;;23.70;49.10;;;;;;5063896;28;20440;-64
2021/06/10 00:13:01;;;;;;;14.70;11.48;;;23.70;48.50;;;;;;5079419;28;20490;-63
2021/06/10 00:15:32;;;;;;;22.50;17.40;;;23.70;48.70;;;;;;5078292;28;20051;-64
2021/06/10 00:17:59;;;;;;;13.63;10.63;;;23.60;49.60;;;;;;5076997;28;20041;-63
2021/06/10 00:20:27;;;;;;;17.85;12.63;;;23.60;49.40;;;;;;5073118;28;20047;-63
2021/06/10 00:22:54;;;;;;;13.50;11.52;;;23.60;49.00;;;;;;5080080;28;20063;-63
2021/06/10 00:25:21;;;;;;;10.93;9.10;;;23.70;49.00;;;;;;5078563;28;20043;-63
2021/06/10 00:27:47;;;;;;;16.30;12.68;;;23.60;49.30;;;;;;5081976;28;20032;-64
2021/06/10 00:30:16;;;;;;;13.63;9.45;;;23.60;49.60;;;;;;5073942;28;20101;-63
2021/06/10 00:32:42;;;;;;;11.20;7.65;;;23.60;49.20;;;;;;5084230;28;20036;-63
2021/06/10 00:35:08;;;;;;;12.48;8.93;;;23.60;48.70;;;;;;5076251;28;20059;-63
2021/06/10 00:37:34;;;;;;;16.13;11.35;;;23.60;49.20;;;;;;5079215;28;20028;-63
2021/06/10 00:40:00;;;;;;;14.82;11.52;;;23.50;48.70;;;;;;5065134;28;20040;-63
2021/06/10 00:42:26;;;;;;;4.80;4.28;;;23.50;48.90;;;;;;5069913;28;20051;-63
2021/06/10 00:44:52;;;;;;;8.27;6.82;;;23.50;48.90;;;;;;5076085;28;20105;-64
2021/06/10 00:47:18;;;;;;;13.95;8.10;;;23.50;49.00;;;;;;5073051;28;20082;-63
2021/06/10 00:49:43;;;;;;;5.72;3.90;;;23.40;48.70;;;;;;5070402;28;20056;-64
2021/06/10 00:52:10;;;;;;;8.38;5.38;;;23.50;48.80;;;;;;5070706;28;20044;-63
2021/06/10 00:54:37;;;;;;;10.00;6.07;;;23.40;48.40;;;;;;5065932;28;20082;-63
2021/06/10 00:57:03;;;;;;;8.90;6.72;;;23.30;48.40;;;;;;5064038;28;20025;-63
2021/06/10 00:59:29;;;;;;;5.97;4.68;;;23.30;48.20;;;;;;5079742;28;20481;-63
2021/06/10 01:01:55;;;;;;;3.38;2.95;;;23.30;48.30;;;;;;5073275;28;20085;-63
2021/06/10 01:04:20;;;;;;;11.80;8.23;;;23.30;48.40;;;;;;5083321;28;20480;-63
2021/06/10 01:06:56;;;;;;;5.63;5.13;;;23.30;48.40;;;;;;5062410;28;20120;-64
2021/06/10 01:09:39;;;;;;;3.75;3.45;;;23.20;48.60;;;;;;5070693;28;20036;-63
2021/06/10 01:12:17;;;;;;;3.97;3.67;;;23.30;48.60;;;;;;5072252;28;20040;-63
2021/06/10 01:15:16;;;;;;;2.63;2.30;;;23.20;48.60;;;;;;5083679;28;20044;-63
2021/06/10 01:17:46;;;;;;;6.18;5.20;;;23.10;48.50;;;;;;5002793;28;20033;-64
2021/06/10 01:20:26;;;;;;;8.20;5.60;;;23.00;48.50;;;;;;5069065;28;20044;-64
2021/06/10 01:22:57;;;;;;;21.45;15.15;;;23.00;48.20;;;;;;5070557;28;20124;-64
2021/06/10 01:25:46;;;;;;;16.73;10.93;;;23.00;48.00;;;;;;5072081;28;20040;-64
2021/06/10 01:28:15;;;;;;;12.10;7.50;;;23.10;47.90;;;;;;5011737;28;20041;-64
2021/06/10 01:30:53;;;;;;;7.40;4.25;;;23.00;47.60;;;;;;5066897;28;20075;-63
2021/06/10 01:33:31;;;;;;;4.95;3.72;;;23.00;47.80;;;;;;5075244;28;20463;-64
2021/06/10 01:36:15;;;;;;;4.10;3.67;;;23.00;48.10;;;;;;5066475;28;20055;-63
2021/06/10 01:38:44;;;;;;;6.03;5.00;;;23.00;48.10;;;;;;5035782;28;20076;-64
2021/06/10 01:41:11;;;;;;;4.82;3.78;;;22.90;48.00;;;;;;5069124;28;20145;-64
2021/06/10 01:43:39;;;;;;;11.20;8.73;;;22.90;47.60;;;;;;5068516;28;20040;-63
2021/06/10 01:46:07;;;;;;;7.55;4.45;;;22.90;47.60;;;;;;5069674;28;22391;-63
2021/06/10 01:48:33;;;;;;;3.10;2.20;;;22.90;47.70;;;;;;5062264;28;20032;-60
2021/06/10 01:51:02;;;;;;;5.95;4.57;;;22.80;48.20;;;;;;5072622;28;20516;-64
2021/06/10 01:53:28;;;;;;;12.75;8.57;;;22.80;48.20;;;;;;5072567;28;20385;-63
2021/06/10 01:55:57;;;;;;;16.33;9.98;;;22.80;48.30;;;;;;5074579;28;20046;-63
2021/06/10 01:58:24;;;;;;;7.85;4.80;;;22.80;48.40;;;;;;5076179;28;20410;-63
2021/06/10 02:00:51;;;;;;;4.75;3.22;;;22.80;48.50;;;;;;5073766;28;20036;-63
2021/06/10 02:03:20;;;;;;;3.85;2.30;;;22.70;48.50;;;;;;5069792;28;20117;-63
2021/06/10 02:05:46;;;;;;;4.28;3.15;;;22.60;48.20;;;;;;5078559;28;20375;-63
2021/06/10 02:08:15;;;;;;;3.97;3.50;;;22.70;48.50;;;;;;5067136;28;20028;-63
2021/06/10 02:10:44;;;;;;;4.95;2.70;;;22.70;48.70;;;;;;5084463;28;20093;-63
2021/06/10 02:13:10;;;;;;;7.70;3.88;;;22.60;48.90;;;;;;5075597;28;20036;-64
2021/06/10 02:15:37;;;;;;;4.13;1.88;;;22.60;49.00;;;;;;5076262;28;20114;-64
2021/06/10 02:18:04;;;;;;;3.70;3.13;;;22.60;48.30;;;;;;5065428;28;20024;-62
2021/06/10 02:20:29;;;;;;;3.00;2.00;;;22.60;48.80;;;;;;5057643;28;20120;-65
2021/06/10 02:22:55;;;;;;;3.38;1.95;;;22.50;49.20;;;;;;5060485;28;20124;-65
2021/06/10 02:25:21;;;;;;;1.77;1.67;;;22.50;49.20;;;;;;5041800;28;20036;-65
2021/06/10 02:27:46;;;;;;;3.35;1.80;;;22.50;49.40;;;;;;5045291;28;20036;-65
2021/06/10 02:30:14;;;;;;;2.65;2.45;;;22.50;49.40;;;;;;5042379;28;20459;-65
2021/06/10 02:32:40;;;;;;;3.40;3.10;;;22.50;49.60;;;;;;5054519;28;20025;-65
2021/06/10 02:35:08;;;;;;;2.65;2.45;;;22.60;49.60;;;;;;5049578;28;20044;-63
2021/06/10 02:37:37;;;;;;;2.70;2.50;;;22.50;49.90;;;;;;5052263;28;20573;-63
2021/06/10 02:40:07;;;;;;;5.05;3.33;;;22.50;50.00;;;;;;5036303;28;20090;-64
2021/06/10 02:42:36;;;;;;;3.25;3.00;;;22.50;50.50;;;;;;5038801;28;20137;-64
2021/06/10 02:45:05;;;;;;;3.88;3.58;;;22.50;50.80;;;;;;5032666;28;20059;-65
2021/06/10 02:47:32;;;;;;;3.63;3.20;;;22.50;50.90;;;;;;5059902;28;20493;-64
2021/06/10 02:49:59;;;;;;;3.55;3.25;;;22.50;50.90;;;;;;5047866;28;20036;-65
2021/06/10 02:52:26;;;;;;;4.85;3.65;;;22.40;51.10;;;;;;5045097;28;20512;-65
2021/06/10 02:54:52;;;;;;;4.72;4.18;;;22.40;51.40;;;;;;5055563;28;20036;-65
2021/06/10 02:57:20;;;;;;;3.85;3.45;;;22.40;51.60;;;;;;5054885;28;20032;-65
2021/06/10 02:59:47;;;;;;;4.03;3.63;;;22.30;51.70;;;;;;5047107;28;20047;-64
2021/06/10 03:02:14;;;;;;;4.15;3.67;;;22.30;52.10;;;;;;5052210;28;20429;-64
2021/06/10 03:04:42;;;;;;;4.43;4.03;;;22.20;52.10;;;;;;5057475;28;20077;-64
2021/06/10 03:07:15;;;;;;;4.60;3.80;;;22.30;52.80;;;;;;5054935;28;20498;-64
2021/06/10 03:09:42;;;;;;;4.65;4.25;;;22.20;52.20;;;;;;5061443;28;20032;-64
2021/06/10 03:12:09;;;;;;;5.05;3.70;;;22.20;52.30;;;;;;5052519;28;20098;-64
2021/06/10 03:14:35;;;;;;;3.45;3.15;;;22.20;52.40;;;;;;5062990;28;20040;-63
2021/06/10 03:17:02;;;;;;;4.35;3.80;;;22.20;52.50;;;;;;5050020;28;20339;-64
2021/06/10 03:19:27;;;;;;;5.88;4.10;;;22.20;52.50;;;;;;5038039;28;20404;-64
2021/06/10 03:21:54;;;;;;;5.53;3.30;;;22.20;52.40;;;;;;5052319;28;20114;-64
2021/06/10 03:24:21;;;;;;;7.43;3.78;;;22.20;52.50;;;;;;5056815;28;20053;-64
2021/06/10 03:26:47;;;;;;;6.72;4.10;;;22.10;52.60;;;;;;5055978;28;20394;-64
2021/06/10 03:29:12;;;;;;;4.93;4.43;;;22.10;52.90;;;;;;5064534;28;20040;-64
2021/06/10 03:31:39;;;;;;;5.15;3.90;;;22.10;53.10;;;;;;5061058;28;20083;-63
2021/06/10 03:34:05;;;;;;;4.70;4.25;;;22.00;52.90;;;;;;5060857;28;20366;-63
2021/06/10 03:36:31;;;;;;;3.97;3.67;;;22.10;53.00;;;;;;5061572;28;20028;-64
2021/06/10 03:38:58;;;;;;;5.80;3.88;;;22.10;53.00;;;;;;5060176;28;20035;-64
2021/06/10 03:41:26;;;;;;;4.35;4.03;;;22.00;52.60;;;;;;5065404;28;20627;-64
2021/06/10 03:43:53;;;;;;;3.67;3.38;;;22.00;52.60;;;;;;5059995;28;20048;-64
2021/06/10 03:46:20;;;;;;;3.83;3.47;;;22.00;53.00;;;;;;5061308;28;20458;-64
2021/06/10 03:48:46;;;;;;;3.72;3.42;;;22.00;53.20;;;;;;5061314;28;20068;-65
2021/06/10 03:51:17;;;;;;;5.53;3.80;;;22.00;52.90;;;;;;5054800;28;20083;-65
2021/06/10 03:53:47;;;;;;;4.60;3.35;;;22.00;53.10;;;;;;5052168;28;20068;-63
2021/06/10 03:56:13;;;;;;;5.03;3.35;;;21.90;53.20;;;;;;5060633;28;20051;-62
2021/06/10 03:58:38;;;;;;;3.75;3.40;;;22.00;53.40;;;;;;5063145;28;20135;-63
2021/06/10 04:01:04;;;;;;;3.20;2.90;;;21.90;52.90;;;;;;5067142;28;20468;-63
2021/06/10 04:03:30;;;;;;;3.92;3.15;;;21.90;53.00;;;;;;5057134;28;20066;-63
2021/06/10 04:05:57;;;;;;;3.22;2.90;;;22.00;53.20;;;;;;5066382;28;20477;-63
2021/06/10 04:08:22;;;;;;;4.15;3.03;;;22.00;53.20;;;;;;5070064;28;20067;-63
2021/06/10 04:10:48;;;;;;;5.68;4.07;;;21.90;53.60;;;;;;5067889;28;20127;-63
2021/06/10 04:13:14;;;;;;;5.32;3.60;;;21.90;53.60;;;;;;5077921;28;20048;-63
2021/06/10 04:15:40;;;;;;;5.90;4.32;;;22.00;53.50;;;;;;5062749;28;20420;-64
2021/06/10 04:18:06;;;;;;;5.85;4.20;;;22.00;53.90;;;;;;5070096;28;20050;-63
2021/06/10 04:20:31;;;;;;;6.85;5.13;;;21.90;53.90;;;;;;5065906;28;20055;-63
2021/06/10 04:22:57;;;;;;;5.97;3.92;;;21.90;54.50;;;;;;5063866;28;20053;-63
2021/06/10 04:25:22;;;;;;;4.65;3.72;;;21.90;54.00;;;;;;5059523;28;21676;-63
2021/06/10 04:27:48;;;;;;;4.45;3.83;;;21.90;53.70;;;;;;5057454;28;20055;-63
2021/06/10 04:30:16;;;;;;;4.70;3.67;;;21.90;53.80;;;;;;5063758;28;20123;-63
2021/06/10 04:32:44;;;;;;;5.55;3.85;;;21.90;54.10;;;;;;5066584;28;20164;-63
2021/06/10 04:35:11;;;;;;;7.22;4.35;;;21.90;54.30;;;;;;5048823;28;20490;-63
2021/06/10 04:37:37;;;;;;;6.32;4.65;;;21.90;54.30;;;;;;5072516;28;20037;-64
2021/06/10 04:40:04;;;;;;;7.85;4.47;;;21.90;54.30;;;;;;5065286;28;20103;-64
2021/06/10 04:42:30;;;;;;;7.85;4.22;;;21.90;54.60;;;;;;5082858;28;20044;-64
2021/06/10 04:44:56;;;;;;;6.30;4.55;;;21.90;54.70;;;;;;5077176;28;20028;-63
2021/06/10 04:47:21;;;;;;;6.38;4.43;;;21.90;54.90;;;;;;5087051;28;20474;-64
2021/06/10 04:49:47;;;;;;;6.95;4.45;;;21.90;55.00;;;;;;5079991;28;20098;-63
2021/06/10 04:52:14;;;;;;;6.57;4.40;;;21.90;54.90;;;;;;5082554;28;20075;-63
2021/06/10 04:54:40;;;;;;;6.32;4.50;;;21.90;55.00;;;;;;5073558;28;20062;-64
2021/06/10 04:57:06;;;;;;;8.35;4.95;;;21.90;55.30;;;;;;5084752;28;20115;-63
2021/06/10 04:59:32;;;;;;;7.13;4.80;;;21.90;54.90;;;;;;5082815;28;20034;-63
2021/06/10 05:01:58;;;;;;;6.78;5.35;;;21.90;55.10;;;;;;5057895;28;20033;-64
2021/06/10 05:04:23;;;;;;;6.22;5.18;;;21.90;55.00;;;;;;5083531;28;20052;-63
2021/06/10 05:06:52;;;;;;;6.85;4.80;;;21.90;55.20;;;;;;5070011;28;20139;-63
2021/06/10 05:09:18;;;;;;;5.90;4.90;;;21.90;55.00;;;;;;5069776;28;20043;-64
2021/06/10 05:11:44;;;;;;;6.15;5.25;;;22.00;54.80;;;;;;5065258;28;20481;-63
2021/06/10 05:14:09;;;;;;;10.68;5.13;;;22.00;54.80;;;;;;5085556;28;20089;-64
2021/06/10 05:16:35;;;;;;;6.95;5.40;;;22.10;55.30;;;;;;5064110;28;20044;-63
2021/06/10 05:19:01;;;;;;;7.65;5.45;;;22.00;54.60;;;;;;5063095;28;20044;-63
2021/06/10 05:21:27;;;;;;;7.10;5.75;;;22.10;54.80;;;;;;5076758;28;20048;-64
2021/06/10 05:23:52;;;;;;;9.43;5.90;;;22.10;54.80;;;;;;5067643;28;20510;-64
2021/06/10 05:26:18;;;;;;;9.63;5.72;;;22.10;55.10;;;;;;5072469;28;20140;-64
2021/06/10 05:28:44;;;;;;;7.28;5.10;;;22.10;54.70;;;;;;5076537;28;20044;-64
2021/06/10 05:31:10;;;;;;;3.67;2.90;;;22.20;54.80;;;;;;5069942;28;20611;-63
2021/06/10 05:33:36;;;;;;;4.40;3.20;;;22.20;53.50;;;;;;5076959;28;20355;-63
2021/06/10 05:36:03;;;;;;;3.92;3.03;;;22.20;53.10;;;;;;5064180;28;20450;-64
2021/06/10 05:38:29;;;;;;;3.53;2.58;;;22.30;51.80;;;;;;5075966;28;20032;-64
2021/06/10 05:40:55;;;;;;;3.03;2.20;;;22.30;51.60;;;;;;5060974;28;20053;-64
2021/06/10 05:43:23;;;;;;;2.22;2.00;;;22.40;51.60;;;;;;5076874;28;20418;-64
2021/06/10 05:45:50;;;;;;;3.03;1.92;;;22.30;51.10;;;;;;5065898;28;20047;-64
2021/06/10 05:48:17;;;;;;;6.57;2.10;;;22.30;51.20;;;;;;5075779;28;20092;-64
2021/06/10 05:50:43;;;;;;;2.55;1.88;;;22.40;50.40;;;;;;5063211;28;20419;-63
2021/06/10 05:53:08;;;;;;;3.00;1.75;;;22.50;49.60;;;;;;5074517;28;20040;-63
2021/06/10 05:55:36;;;;;;;6.53;2.58;;;22.50;49.30;;;;;;5086230;28;20477;-64
2021/06/10 05:58:01;;;;;;;4.32;1.80;;;22.60;49.90;;;;;;5041079;28;20482;-64
2021/06/10 06:00:27;;;;;;;3.95;2.20;;;22.60;49.20;;;;;;5065624;28;20092;-64
2021/06/10 06:02:52;;;;;;;2.08;1.83;;;22.70;49.80;;;;;;5058795;28;20056;-64
2021/06/10 06:05:18;;;;;;;4.35;2.92;;;22.70;49.70;;;;;;5073602;28;20362;-64
2021/06/10 06:07:44;;;;;;;2.45;2.20;;;22.70;49.10;;;;;;5068510;28;20048;-64
2021/06/10 06:10:11;;;;;;;6.25;2.13;;;22.70;48.70;;;;;;5083562;28;20032;-64
2021/06/10 06:12:40;;;;;;;3.15;2.10;;;22.80;48.00;;;;;;5081241;28;20130;-64
2021/06/10 06:15:06;;;;;;;2.38;2.05;;;22.90;48.80;;;;;;5076914;28;20032;-61
2021/06/10 06:17:32;;;;;;;2.08;1.98;;;22.90;47.60;;;;;;5062182;28;20040;-62
2021/06/10 06:19:59;;;;;;;2.88;2.10;;;22.90;47.60;;;;;;5076863;28;20090;-63
2021/06/10 06:22:26;;;;;;;3.05;1.77;;;22.90;47.40;;;;;;5080194;28;20535;-63
2021/06/10 06:24:52;;;;;;;3.55;2.40;;;22.90;47.00;;;;;;5054775;28;20544;-63
2021/06/10 06:27:18;;;;;;;4.60;2.15;;;23.00;47.00;;;;;;5064018;28;20036;-62
2021/06/10 06:29:44;;;;;;;3.35;2.40;;;23.00;47.00;;;;;;5066234;28;20095;-63
2021/06/10 06:32:09;;;;;;;6.07;2.97;;;23.00;47.10;;;;;;5076443;28;20032;-62
2021/06/10 06:34:35;;;;;;;5.55;2.65;;;23.10;46.90;;;;;;5050515;28;20067;-62
2021/06/10 06:37:01;;;;;;;3.85;2.58;;;23.10;46.60;;;;;;5045727;28;20041;-62
2021/06/10 06:39:26;;;;;;;3.53;2.65;;;23.30;47.00;;;;;;5049822;28;20059;-63
2021/06/10 06:41:52;;;;;;;6.63;3.13;;;23.20;46.50;;;;;;5072231;28;20048;-63
2021/06/10 06:44:19;;;;;;;4.82;2.75;;;23.30;46.70;;;;;;5076517;28;20126;-63
2021/06/10 06:46:44;;;;;;;4.13;2.83;;;23.20;46.30;;;;;;5077511;28;20059;-63
2021/06/10 06:49:11;;;;;;;2.33;2.13;;;23.40;46.40;;;;;;5049213;28;20033;-63
2021/06/10 06:51:37;;;;;;;3.20;2.50;;;23.40;46.80;;;;;;5077343;28;20497;-62
2021/06/10 06:54:03;;;;;;;6.47;2.60;;;23.50;46.20;;;;;;5060505;28;20063;-63
2021/06/10 06:56:29;;;;;;;3.60;2.75;;;23.50;45.70;;;;;;5068025;28;20086;-62
2021/06/10 06:58:55;;;;;;;3.97;3.03;;;23.50;45.60;;;;;;5062222;28;20041;-64
2021/06/10 07:01:21;;;;;;;4.30;3.00;;;23.40;45.40;;;;;;5057385;28;20044;-61
2021/06/10 07:03:47;;;;;;;3.28;2.88;;;23.50;45.50;;;;;;5057991;28;20057;-62
2021/06/10 07:06:13;;;;;;;3.20;2.50;;;23.60;45.90;;;;;;5060530;28;20127;-62
2021/06/10 07:08:38;;;;;;;3.83;2.15;;;23.60;45.30;;;;;;5058403;28;20033;-62
2021/06/10 07:11:04;;;;;;;3.38;2.05;;;23.70;45.00;;;;;;5070827;28;20051;-62
2021/06/10 07:13:30;;;;;;;4.43;2.53;;;23.80;44.40;;;;;;5059683;28;20036;-62
2021/06/10 07:15:55;;;;;;;2.58;2.38;;;23.80;44.60;;;;;;5069733;28;20036;-63
2021/06/10 07:18:21;;;;;;;3.17;2.67;;;23.90;44.30;;;;;;5064933;28;20123;-62
2021/06/10 07:20:47;;;;;;;5.13;2.50;;;23.90;44.10;;;;;;5067608;28;20037;-62
2021/06/10 07:23:13;;;;;;;2.97;2.67;;;23.90;43.90;;;;;;5064648;28;20517;-62
2021/06/10 07:25:39;;;;;;;4.40;2.63;;;24.00;44.10;;;;;;5066494;28;20041;-62
2021/06/10 07:28:05;;;;;;;3.72;2.92;;;24.10;44.20;;;;;;5058568;28;20056;-59
2021/06/10 07:30:31;;;;;;;8.45;3.08;;;24.20;44.30;;;;;;5058692;28;20036;-63
2021/06/10 07:32:57;;;;;;;3.30;2.70;;;24.20;43.70;;;;;;5062175;28;20032;-63
2021/06/10 07:35:23;;;;;;;5.63;3.20;;;24.20;43.80;;;;;;5073673;28;20044;-63
2021/06/10 07:37:53;;;;;;;4.30;3.10;;;24.20;43.40;;;;;;5074491;28;20040;-62
2021/06/10 07:40:20;;;;;;;6.65;3.83;;;24.30;43.10;;;;;;5076731;28;20550;-63
2021/06/10 07:42:46;;;;;;;4.30;3.90;;;24.40;43.00;;;;;;5074831;28;20512;-64
2021/06/10 07:45:12;;;;;;;3.83;3.53;;;24.40;43.10;;;;;;5060567;28;20029;-64
2021/06/10 07:47:39;;;;;;;6.93;4.45;;;24.40;43.20;;;;;;5066039;28;20060;-63
2021/06/10 07:50:06;;;;;;;4.25;3.85;;;24.60;43.10;;;;;;5051970;28;20702;-64
2021/06/10 07:52:32;;;;;;;6.22;3.67;;;24.60;43.20;;;;;;5067744;28;20048;-64
2021/06/10 07:54:58;;;;;;;4.45;3.83;;;24.70;42.90;;;;;;5071538;28;20033;-64
2021/06/10 07:57:23;;;;;;;5.38;3.88;;;24.60;42.80;;;;;;5044165;28;20049;-64
2021/06/10 07:59:49;;;;;;;6.57;3.58;;;24.70;42.50;;;;;;5068255;28;20044;-64
2021/06/10 08:02:15;;;;;;;3.78;3.33;;;24.80;42.70;;;;;;5057654;28;20040;-64
2021/06/10 08:04:40;;;;;;;5.43;3.08;;;24.80;42.80;;;;;;5066240;28;20048;-64
2021/06/10 08:07:06;;;;;;;4.15;3.35;;;24.90;42.30;;;;;;5060385;28;20180;-64
2021/06/10 08:09:32;;;;;;;5.90;5.22;;;25.00;42.40;;;;;;5061023;28;20024;-64
2021/06/10 08:11:59;;;;;;;6.57;5.28;;;25.00;42.00;;;;;;5057443;28;20572;-65
2021/06/10 08:14:25;;;;;;;5.97;4.35;;;25.10;41.50;;;;;;5058074;28;20050;-65
2021/06/10 08:16:51;;;;;;;6.95;4.05;;;25.00;41.40;;;;;;5068941;28;20036;-64
2021/06/10 08:19:17;;;;;;;7.18;4.97;;;25.20;41.80;;;;;;5054039;28;20036;-64
2021/06/10 08:21:43;;;;;;;5.72;4.30;;;25.20;41.80;;;;;;5066500;28;20053;-64
2021/06/10 08:24:11;;;;;;;8.43;4.68;;;25.20;41.50;;;;;;5058682;28;20136;-64
2021/06/10 08:26:36;;;;;;;5.45;4.25;;;25.20;41.60;;;;;;5081087;28;20040;-64
2021/06/10 08:29:02;;;;;;;5.38;4.70;;;25.30;41.70;;;;;;5073520;28;20393;-64
2021/06/10 08:31:28;;;;;;;7.72;4.90;;;25.30;42.00;;;;;;5060526;28;20120;-64
2021/06/10 08:33:54;;;;;;;6.03;5.43;;;25.40;41.50;;;;;;5056702;28;20041;-64
2021/06/10 08:36:21;;;;;;;7.07;5.10;;;25.50;41.30;;;;;;5060620;28;20562;-64
2021/06/10 08:38:47;;;;;;;7.30;4.97;;;25.50;41.40;;;;;;5074818;28;20036;-65
2021/06/10 08:41:13;;;;;;;5.50;4.25;;;25.50;41.00;;;;;;5066395;28;20033;-63
2021/06/10 08:43:39;;;;;;;4.72;4.30;;;25.60;40.90;;;;;;5062368;28;20048;-63
2021/06/10 08:46:07;;;;;;;7.10;4.93;;;25.80;41.00;;;;;;5058392;28;20131;-60
2021/06/10 08:48:35;;;;;;;9.25;6.07;;;25.80;41.00;;;;;;5057644;28;20047;-64
2021/06/10 08:51:01;;;;;;;7.43;6.72;;;25.80;40.90;;;;;;5059221;28;20040;-63
2021/06/10 08:53:27;;;;;;;7.72;5.63;;;25.80;40.60;;;;;;5065361;28;20045;-63
2021/06/10 08:55:57;;;;;;;6.00;5.50;;;25.80;41.00;;;;;;5068619;28;20036;-64
2021/06/10 08:58:27;;;;;;;7.78;6.82;;;25.80;40.60;;;;;;5065622;28;20036;-64
2021/06/10 09:00:57;;;;;;;7.90;5.85;;;25.80;40.50;;;;;;5061187;28;20074;-64
2021/06/10 09:03:29;;;;;;;10.38;6.90;;;25.90;40.90;;;;;;5065366;28;20143;-64
2021/06/10 09:06:06;;;;;;;10.40;7.03;;;26.00;41.10;;;;;;5071674;28;20115;-63
2021/06/10 09:08:33;;;;;;;7.85;7.10;;;26.00;40.70;;;;;;5067326;28;20119;-64
2021/06/10 09:11:14;;;;;;;9.93;7.43;;;26.10;40.80;;;;;;5059915;28;20033;-63
2021/06/10 09:13:47;;;;;;;10.52;8.50;;;26.20;40.70;;;;;;5067701;28;20036;-63
2021/06/10 09:16:16;;;;;;;12.48;9.80;;;26.20;40.90;;;;;;5062903;28;20032;-63
2021/06/10 09:19:13;;;;;;;9.70;8.70;;;26.20;40.70;;;;;;5054420;28;20040;-63
2021/06/10 09:21:44;;;;;;;10.45;8.60;;;26.30;40.60;;;;;;5060364;28;20050;-63
2021/06/10 09:24:21;;;;;;;10.73;8.93;;;26.30;40.50;;;;;;5062901;28;20060;-63
2021/06/10 09:27:14;;;;;;;11.35;9.93;;;26.40;40.90;;;;;;5077535;28;20044;-63
2021/06/10 09:29:41;;;;;;;12.60;10.63;;;26.50;41.00;;;;;;5082136;28;20127;-64
2021/06/10 09:32:30;;;;;;;9.70;8.65;;;26.60;40.90;;;;;;5061219;28;20049;-63
2021/06/10 09:34:57;;;;;;;12.00;9.45;;;26.70;41.60;;;;;;5024891;28;20049;-64
2021/06/10 09:37:35;;;;;;;11.23;10.23;;;26.80;40.40;;;;;;5056687;28;20102;-64
2021/06/10 09:40:03;;;;;;;11.45;10.25;;;26.70;39.50;;;;;;5073069;28;20038;-64
2021/06/10 09:42:30;;;;;;;9.65;8.73;;;26.80;39.80;;;;;;5072575;28;20068;-64
2021/06/10 09:45:00;;;;;;;11.70;9.05;;;26.90;39.60;;;;;;5081938;28;20593;-65
2021/06/10 09:47:30;;;;;;;11.70;9.85;;;27.00;39.30;;;;;;5053222;28;20044;-64
2021/06/10 09:49:56;;;;;;;9.75;8.95;;;27.00;39.10;;;;;;5075052;28;20060;-65
2021/06/10 09:52:22;;;;;;;12.13;10.82;;;27.00;39.00;;;;;;5058507;28;20439;-64
2021/06/10 09:54:53;;;;;;;12.55;11.15;;;27.10;39.20;;;;;;5065651;28;20082;-65
2021/06/10 09:57:19;;;;;;;13.45;11.38;;;27.10;39.00;;;;;;5066509;28;20506;-65
2021/06/10 09:59:52;;;;;;;11.93;10.73;;;27.30;39.10;;;;;;5062889;28;20482;-64
2021/06/10 10:02:21;;;;;;;10.10;9.10;;;27.20;38.70;;;;;;5070032;28;20116;-64
2021/06/10 10:05:10;;;;;;;12.80;11.50;;;27.20;39.00;;;;;;5047071;28;20052;-64
2021/06/10 10:07:37;;;;;;;10.15;9.00;;;27.40;37.80;;;;;;5051280;28;20127;-60
2021/06/10 10:10:08;;;;;;;12.80;11.52;;;27.40;38.50;;;;;;5052820;28;20420;-64
2021/06/10 10:12:39;;;;;;;12.23;11.02;;;27.40;37.70;;;;;;5064701;28;20036;-64
2021/06/10 10:15:05;;;;;;;13.30;11.93;;;27.40;38.60;;;;;;5077009;28;20127;-63
2021/06/10 10:17:31;;;;;;;11.57;10.20;;;27.60;38.30;;;;;;5070746;28;20108;-63
2021/06/10 10:19:57;;;;;;;12.77;11.48;;;27.60;38.40;;;;;;5069658;28;20044;-64
2021/06/10 10:22:24;;;;;;;14.07;12.85;;;27.60;38.30;;;;;;5064854;28;20049;-63
2021/06/10 10:24:53;;;;;;;13.20;11.90;;;27.70;38.30;;;;;;5078165;28;20044;-63
2021/06/10 10:27:19;;;;;;;10.65;9.75;;;27.70;38.30;;;;;;5067400;28;20044;-63
2021/06/10 10:29:47;;;;;;;9.98;9.13;;;27.90;38.10;;;;;;5059962;28;20048;-65
2021/06/10 10:32:19;;;;;;;14.13;10.18;;;28.00;37.40;;;;;;5060227;28;20397;-64
2021/06/10 10:34:45;;;;;;;11.30;10.25;;;28.00;37.30;;;;;;5065639;28;20036;-64
2021/06/10 10:37:19;;;;;;;11.68;10.48;;;28.10;37.10;;;;;;5051212;28;20503;-64
2021/06/10 10:39:46;;;;;;;9.63;8.82;;;28.20;35.70;;;;;;5067927;28;20150;-64
2021/06/10 10:42:42;;;;;;;8.32;7.57;;;28.30;36.00;;;;;;5071627;28;20040;-63
2021/06/10 10:45:22;;;;;;;13.23;11.90;;;28.20;35.90;;;;;;5068708;28;20064;-63
2021/06/10 10:48:04;;;;;;;12.13;10.98;;;28.30;36.20;;;;;;5076115;28;20044;-64
2021/06/10 10:50:41;;;;;;;11.32;10.23;;;28.40;36.00;;;;;;5077604;28;20157;-64
2021/06/10 10:53:15;;;;;;;12.93;11.68;;;28.90;35.50;;;;;;5078449;28;20032;-62
2021/06/10 10:55:41;;;;;;;;;;;30.00;35.10;;;;;;5071079;28;20049;-64
2021/06/10 10:58:16;;;;;;;12.65;11.35;;;30.80;32.50;;;;;;5070622;28;19958;-63
2021/06/10 11:00:49;;;;;;;13.15;11.95;;;31.60;32.00;;;;;;5056246;28;20033;-64
2021/06/10 11:03:15;;;;;;;14.57;13.23;;;32.30;30.90;;;;;;5064300;28;20056;-64
2021/06/10 11:05:43;;;;;;;13.90;12.70;;;32.40;30.30;;;;;;5072085;28;20799;-64
2021/06/10 11:08:08;;;;;;;11.88;10.82;;;32.40;30.40;;;;;;5064104;28;20059;-64
2021/06/10 11:10:49;;;;;;;11.98;11.05;;;32.10;30.20;;;;;;5067971;28;20541;-64
2021/06/10 11:13:17;;;;;;;13.90;12.43;;;33.50;29.40;;;;;;5016792;28;20037;-64
2021/06/10 11:15:43;;;;;;;14.93;13.60;;;33.70;29.50;;;;;;5072151;28;21011;-64
2021/06/10 11:18:09;;;;;;;14.15;12.85;;;33.20;29.50;;;;;;5081625;28;20059;-64
2021/06/10 11:20:37;;;;;;;12.23;10.35;;;33.20;29.40;;;;;;5079379;28;20387;-64
2021/06/10 11:23:27;;;;;;;10.90;9.35;;;33.40;29.20;;;;;;5071548;28;20053;-64
2021/06/10 11:25:54;;;;;;;10.35;9.45;;;33.10;28.20;;;;;;5029958;28;20063;-64
2021/06/10 11:28:24;;;;;;;9.63;8.73;;;33.40;28.70;;;;;;5056565;28;20037;-64
2021/06/10 11:30:54;;;;;;;9.48;8.38;;;33.60;28.30;;;;;;5055329;28;20037;-64
2021/06/10 11:33:21;;;;;;;9.05;7.90;;;33.50;28.20;;;;;;5058347;28;20033;-64
2021/06/10 11:35:51;;;;;;;10.93;9.32;;;33.00;28.80;;;;;;5052501;28;20033;-64
2021/06/10 11:38:21;;;;;;;11.02;9.73;;;32.40;28.70;;;;;;5060282;28;20048;-64
2021/06/10 11:40:55;;;;;;;10.25;8.73;;;32.40;29.00;;;;;;5061536;28;20036;-64
2021/06/10 11:43:22;;;;;;;;;;;32.30;28.80;;;;;;5070466;28;20394;-65
2021/06/10 11:45:50;;;;;;;16.85;12.65;;;32.30;28.50;;;;;;5061729;28;20262;-64
2021/06/10 11:48:51;;;;;;;14.13;12.48;;;32.40;29.30;;;;;;5065010;28;20474;-65
2021/06/10 11:51:22;;;;;;;11.68;10.63;;;33.00;28.70;;;;;;5035452;28;20036;-62
2021/06/10 11:53:49;;;;;;;13.93;12.52;;;33.10;27.90;;;;;;5066060;28;20105;-63
2021/06/10 11:56:22;;;;;;;10.00;8.98;;;33.40;27.90;;;;;;5062638;28;20033;-64
2021/06/10 11:58:48;;;;;;;11.60;10.57;;;33.90;28.20;;;;;;5060391;28;20506;-64
2021/06/10 12:01:14;;;;;;;15.00;12.82;;;34.10;28.10;;;;;;5059072;28;20040;-65
